createdAt,value
2017-12-05T00:00:32.363Z,27.40
2017-12-05T00:01:32.347Z,27.60
2017-12-05T00:02:32.328Z,27.60
2017-12-05T00:03:32.312Z,28.20
2017-12-05T00:04:32.299Z,27.00
2017-12-05T00:05:32.281Z,26.30
2017-12-05T00:06:32.268Z,25.60
2017-12-05T00:07:32.250Z,25.90
2017-12-05T00:08:32.229Z,25.90
2017-12-05T00:09:32.213Z,25.10
2017-12-05T00:10:32.195Z,26.10
2017-12-05T00:11:32.179Z,25.20
2017-12-05T00:12:32.166Z,25.10
2017-12-05T00:13:32.146Z,25.90
2017-12-05T00:14:32.130Z,26.40
2017-12-05T00:15:32.118Z,28.30
2017-12-05T00:16:32.096Z,26.20
2017-12-05T00:17:32.084Z,26.20
2017-12-05T00:18:32.061Z,27.00
2017-12-05T00:19:32.046Z,26.80
2017-12-05T00:20:32.029Z,26.00
2017-12-05T00:21:32.015Z,26.60
2017-12-05T00:22:32.000Z,25.80
2017-12-05T00:23:31.980Z,26.30
2017-12-05T00:24:31.963Z,25.90
2017-12-05T00:25:31.945Z,26.40
2017-12-05T00:26:31.930Z,27.90
2017-12-05T00:27:31.921Z,28.90
2017-12-05T00:28:31.909Z,28.10
2017-12-05T00:29:31.879Z,29.00
2017-12-05T00:30:31.866Z,29.00
2017-12-05T00:31:31.851Z,27.70
2017-12-05T00:32:31.829Z,27.90
2017-12-05T00:33:31.814Z,27.80
2017-12-05T00:34:31.795Z,28.20
2017-12-05T00:35:31.779Z,28.70
2017-12-05T00:36:31.762Z,28.60
2017-12-05T00:37:31.747Z,28.30
2017-12-05T00:38:31.729Z,27.80
2017-12-05T00:39:31.722Z,28.20
2017-12-05T00:40:31.698Z,28.20
2017-12-05T00:41:31.680Z,28.50
2017-12-05T00:42:31.668Z,26.40
2017-12-05T00:43:31.646Z,26.90
2017-12-05T00:44:31.636Z,26.90
2017-12-05T00:45:31.612Z,28.10
2017-12-05T00:46:31.597Z,26.80
2017-12-05T00:47:31.587Z,27.90
2017-12-05T00:48:31.570Z,26.90
2017-12-05T00:49:31.546Z,26.80
2017-12-05T00:50:31.532Z,27.10
2017-12-05T00:51:31.515Z,26.70
2017-12-05T00:52:31.496Z,27.20
2017-12-05T00:53:31.481Z,28.90
2017-12-05T00:54:31.468Z,27.40
2017-12-05T00:55:31.447Z,26.10
2017-12-05T00:56:31.435Z,26.70
2017-12-05T00:57:31.413Z,29.50
2017-12-05T00:58:31.401Z,26.40
2017-12-05T00:59:31.384Z,27.50
2017-12-05T01:00:31.364Z,27.50
2017-12-05T01:01:31.354Z,26.70
2017-12-05T01:02:31.329Z,27.60
2017-12-05T01:03:31.314Z,27.00
2017-12-05T01:04:31.307Z,28.40
2017-12-05T01:05:31.279Z,28.70
2017-12-05T01:06:31.264Z,28.60
2017-12-05T01:07:31.245Z,28.60
2017-12-05T01:08:31.228Z,28.00
2017-12-05T01:09:31.213Z,26.90
2017-12-05T01:10:31.201Z,26.10
2017-12-05T01:11:31.180Z,27.20
2017-12-05T01:12:31.162Z,25.10
2017-12-05T01:13:31.150Z,25.50
2017-12-05T01:14:31.128Z,25.20
2017-12-05T01:15:31.112Z,25.60
2017-12-05T01:16:31.095Z,23.40
2017-12-05T01:17:31.084Z,25.40
2017-12-05T01:18:31.062Z,26.20
2017-12-05T01:19:31.046Z,27.20
2017-12-05T01:20:31.030Z,27.80
2017-12-05T01:21:31.022Z,27.80
2017-12-05T01:22:31.001Z,26.50
2017-12-05T01:23:30.978Z,26.60
2017-12-05T01:24:30.963Z,27.10
2017-12-05T01:25:30.947Z,26.80
2017-12-05T01:26:30.929Z,26.70
2017-12-05T01:27:30.912Z,26.70
2017-12-05T01:28:30.901Z,24.60
2017-12-05T01:29:30.884Z,24.80
2017-12-05T01:30:30.864Z,26.40
2017-12-05T01:31:30.845Z,25.50
2017-12-05T01:32:30.832Z,24.60
2017-12-05T01:33:30.813Z,24.30
2017-12-05T01:34:30.796Z,24.60
2017-12-05T01:35:30.783Z,24.90
2017-12-05T01:36:30.768Z,23.90
2017-12-05T01:37:30.745Z,26.00
2017-12-05T01:38:30.730Z,24.80
2017-12-05T01:39:30.713Z,25.20
2017-12-05T01:40:30.708Z,25.10
2017-12-05T01:41:30.680Z,25.10
2017-12-05T01:42:30.665Z,24.00
2017-12-05T01:43:30.644Z,23.80
2017-12-05T01:44:30.636Z,24.60
2017-12-05T01:45:30.613Z,24.10
2017-12-05T01:46:30.600Z,24.10
2017-12-05T01:47:30.578Z,25.60
2017-12-05T01:48:30.571Z,24.80
2017-12-05T01:49:30.549Z,26.20
2017-12-05T01:50:30.530Z,24.80
2017-12-05T01:51:30.518Z,24.80
2017-12-05T01:52:30.496Z,24.10
2017-12-05T01:53:30.480Z,24.30
2017-12-05T01:54:30.464Z,24.40
2017-12-05T01:55:30.445Z,24.60
2017-12-05T01:56:30.429Z,25.60
2017-12-05T01:57:30.415Z,23.90
2017-12-05T01:58:30.394Z,23.90
2017-12-05T01:59:30.387Z,22.40
2017-12-05T02:00:30.363Z,23.20
2017-12-05T02:01:30.347Z,24.20
2017-12-05T02:02:30.340Z,24.90
2017-12-05T02:03:30.316Z,24.00
2017-12-05T02:04:30.301Z,23.20
2017-12-05T02:05:30.285Z,23.70
2017-12-05T02:06:30.267Z,23.70
2017-12-05T02:07:30.244Z,22.70
2017-12-05T02:08:30.228Z,24.10
2017-12-05T02:09:30.213Z,23.70
2017-12-05T02:10:30.197Z,22.50
2017-12-05T02:11:30.179Z,24.50
2017-12-05T02:12:30.171Z,24.40
2017-12-05T02:13:30.145Z,25.20
2017-12-05T02:14:30.128Z,24.00
2017-12-05T02:15:30.116Z,25.70
2017-12-05T02:16:30.098Z,25.20
2017-12-05T02:17:30.085Z,25.00
2017-12-05T02:18:30.066Z,25.40
2017-12-05T02:19:30.045Z,25.50
2017-12-05T02:20:30.029Z,23.50
2017-12-05T02:21:30.015Z,24.30
2017-12-05T02:22:29.994Z,24.70
2017-12-05T02:23:29.978Z,24.80
2017-12-05T02:24:29.963Z,25.20
2017-12-05T02:25:29.952Z,24.10
2017-12-05T02:26:29.927Z,24.50
2017-12-05T02:27:29.911Z,25.00
2017-12-05T02:28:29.894Z,24.60
2017-12-05T02:29:29.878Z,24.60
2017-12-05T02:30:29.867Z,23.80
2017-12-05T02:31:29.843Z,23.60
2017-12-05T02:32:29.831Z,23.90
2017-12-05T02:33:29.810Z,22.30
2017-12-05T02:34:29.800Z,23.60
2017-12-05T02:35:29.776Z,24.50
2017-12-05T02:36:29.764Z,24.30
2017-12-05T02:37:29.746Z,25.70
2017-12-05T02:38:29.728Z,24.10
2017-12-05T02:39:29.709Z,22.80
2017-12-05T02:40:29.694Z,22.50
2017-12-05T02:41:29.682Z,23.10
2017-12-05T02:42:29.662Z,23.90
2017-12-05T02:43:29.644Z,25.00
2017-12-05T02:44:29.627Z,25.00
2017-12-05T02:45:29.610Z,25.20
2017-12-05T02:46:29.593Z,24.60
2017-12-05T02:47:29.576Z,24.20
2017-12-05T02:48:29.560Z,25.00
2017-12-05T02:49:29.542Z,24.10
2017-12-05T02:50:29.526Z,23.80
2017-12-05T02:51:29.509Z,23.30
2017-12-05T02:52:29.495Z,25.20
2017-12-05T02:53:29.477Z,23.50
2017-12-05T02:54:29.458Z,24.20
2017-12-05T02:55:30.294Z,22.90
2017-12-05T02:56:29.427Z,24.50
2017-12-05T02:57:29.409Z,24.40
2017-12-05T02:58:29.391Z,24.20
2017-12-05T02:59:29.376Z,24.30
2017-12-05T03:00:29.359Z,25.20
2017-12-05T03:01:29.351Z,24.20
2017-12-05T03:02:29.326Z,23.30
2017-12-05T03:03:29.310Z,25.60
2017-12-05T03:04:29.294Z,24.40
2017-12-05T03:05:29.281Z,24.80
2017-12-05T03:06:29.258Z,24.20
2017-12-05T03:07:29.243Z,24.70
2017-12-05T03:08:29.225Z,23.60
2017-12-05T03:09:29.212Z,24.80
2017-12-05T03:10:29.191Z,22.50
2017-12-05T03:11:29.177Z,24.10
2017-12-05T03:12:29.159Z,24.20
2017-12-05T03:13:29.148Z,24.70
2017-12-05T03:14:29.129Z,26.10
2017-12-05T03:15:29.114Z,25.10
2017-12-05T03:16:29.092Z,25.20
2017-12-05T03:17:29.077Z,25.40
2017-12-05T03:18:29.058Z,25.60
2017-12-05T03:19:29.046Z,24.90
2017-12-05T03:20:29.026Z,25.40
2017-12-05T03:21:29.010Z,24.20
2017-12-05T03:22:28.993Z,22.70
2017-12-05T03:23:28.974Z,22.80
2017-12-05T03:24:28.958Z,23.20
2017-12-05T03:25:28.946Z,24.00
2017-12-05T03:26:28.934Z,23.50
2017-12-05T03:27:28.909Z,24.90
2017-12-05T03:28:28.898Z,25.30
2017-12-05T03:29:28.885Z,25.10
2017-12-05T03:30:28.859Z,24.50
2017-12-05T03:31:28.840Z,24.70
2017-12-05T03:32:28.825Z,23.40
2017-12-05T03:33:28.808Z,22.50
2017-12-05T03:34:28.791Z,23.00
2017-12-05T03:35:28.774Z,23.00
2017-12-05T03:36:28.760Z,22.80
2017-12-05T03:37:28.742Z,23.40
2017-12-05T03:38:28.722Z,23.60
2017-12-05T03:39:28.706Z,23.80
2017-12-05T03:40:28.696Z,24.10
2017-12-05T03:41:28.673Z,25.20
2017-12-05T03:42:28.663Z,23.70
2017-12-05T03:43:28.640Z,24.10
2017-12-05T03:44:28.623Z,24.10
2017-12-05T03:45:28.607Z,24.90
2017-12-05T03:46:28.590Z,25.10
2017-12-05T03:47:28.573Z,26.30
2017-12-05T03:48:28.564Z,24.60
2017-12-05T03:49:28.541Z,24.40
2017-12-05T03:50:28.529Z,23.50
2017-12-05T03:51:28.522Z,23.10
2017-12-05T03:52:28.489Z,23.00
2017-12-05T03:53:28.476Z,20.40
2017-12-05T03:54:28.457Z,22.50
2017-12-05T03:55:28.443Z,22.80
2017-12-05T03:56:28.429Z,21.50
2017-12-05T03:57:28.408Z,21.40
2017-12-05T03:58:28.396Z,22.80
2017-12-05T03:59:28.376Z,22.40
2017-12-05T04:00:28.359Z,22.90
2017-12-05T04:01:28.341Z,21.90
2017-12-05T04:02:28.325Z,22.70
2017-12-05T04:03:28.314Z,21.50
2017-12-05T04:04:28.291Z,22.50
2017-12-05T04:05:28.275Z,21.20
2017-12-05T04:06:28.258Z,20.60
2017-12-05T04:07:28.246Z,23.00
2017-12-05T04:08:28.225Z,23.50
2017-12-05T04:09:28.211Z,22.90
2017-12-05T04:10:28.191Z,24.30
2017-12-05T04:11:28.176Z,24.30
2017-12-05T04:12:28.161Z,24.10
2017-12-05T04:13:28.149Z,23.60
2017-12-05T04:14:28.131Z,22.70
2017-12-05T04:15:28.114Z,23.40
2017-12-05T04:16:28.099Z,22.10
2017-12-05T04:17:28.081Z,23.20
2017-12-05T04:18:28.058Z,22.40
2017-12-05T04:19:28.043Z,24.40
2017-12-05T04:20:28.028Z,25.00
2017-12-05T04:21:28.010Z,23.60
2017-12-05T04:22:27.993Z,24.40
2017-12-05T04:23:27.976Z,23.30
2017-12-05T04:24:27.966Z,24.20
2017-12-05T04:25:27.945Z,25.20
2017-12-05T04:26:27.928Z,24.30
2017-12-05T04:27:27.910Z,24.50
2017-12-05T04:28:27.897Z,23.70
2017-12-05T04:29:27.876Z,24.40
2017-12-05T04:30:27.866Z,25.20
2017-12-05T04:31:27.841Z,25.10
2017-12-05T04:32:27.826Z,26.10
2017-12-05T04:33:27.817Z,26.40
2017-12-05T04:34:27.792Z,25.50
2017-12-05T04:35:27.775Z,23.20
2017-12-05T04:36:27.759Z,23.70
2017-12-05T04:37:27.751Z,23.10
2017-12-05T04:38:27.725Z,23.60
2017-12-05T04:39:27.709Z,23.60
2017-12-05T04:40:27.698Z,24.20
2017-12-05T04:41:27.680Z,25.30
2017-12-05T04:42:27.664Z,23.40
2017-12-05T04:43:27.644Z,24.80
2017-12-05T04:44:27.627Z,25.30
2017-12-05T04:45:27.610Z,23.20
2017-12-05T04:46:27.593Z,23.90
2017-12-05T04:47:27.575Z,23.60
2017-12-05T04:48:27.561Z,23.30
2017-12-05T04:49:27.543Z,23.40
2017-12-05T04:50:27.526Z,25.10
2017-12-05T04:51:27.556Z,24.60
2017-12-05T04:52:27.493Z,24.60
2017-12-05T04:53:27.475Z,26.80
2017-12-05T04:54:27.457Z,25.60
2017-12-05T04:55:27.443Z,25.50
2017-12-05T04:56:27.425Z,25.60
2017-12-05T04:57:27.408Z,24.50
2017-12-05T04:58:27.391Z,23.00
2017-12-05T04:59:27.374Z,24.30
2017-12-05T05:00:27.358Z,26.60
2017-12-05T05:01:27.342Z,25.70
2017-12-05T05:02:27.327Z,25.40
2017-12-05T05:03:27.315Z,24.80
2017-12-05T05:04:27.296Z,25.30
2017-12-05T05:05:27.276Z,23.30
2017-12-05T05:06:27.257Z,24.50
2017-12-05T05:07:27.238Z,25.10
2017-12-05T05:08:27.229Z,25.30
2017-12-05T05:09:27.205Z,23.00
2017-12-05T05:10:27.193Z,23.80
2017-12-05T05:11:27.171Z,23.30
2017-12-05T05:12:27.154Z,20.60
2017-12-05T05:13:27.144Z,20.60
2017-12-05T05:14:27.120Z,19.50
2017-12-05T05:15:27.104Z,17.90
2017-12-05T05:16:27.089Z,18.40
2017-12-05T05:17:27.123Z,16.40
2017-12-05T05:18:27.057Z,16.80
2017-12-05T05:19:27.038Z,17.60
2017-12-05T05:20:27.020Z,19.00
2017-12-05T05:21:27.002Z,17.30
2017-12-05T05:22:26.983Z,18.20
2017-12-05T05:23:26.966Z,18.10
2017-12-05T05:24:26.951Z,18.20
2017-12-05T05:25:26.939Z,19.20
2017-12-05T05:26:26.916Z,18.30
2017-12-05T05:27:26.897Z,17.00
2017-12-05T05:28:26.882Z,17.40
2017-12-05T05:29:26.871Z,18.00
2017-12-05T05:30:26.845Z,18.80
2017-12-05T05:31:26.829Z,18.70
2017-12-05T05:32:26.813Z,17.00
2017-12-05T05:33:26.801Z,17.20
2017-12-05T05:34:26.782Z,18.30
2017-12-05T05:35:26.759Z,17.20
2017-12-05T05:36:26.742Z,17.70
2017-12-05T05:37:26.725Z,17.70
2017-12-05T05:38:26.712Z,18.80
2017-12-05T05:39:26.690Z,17.90
2017-12-05T05:40:26.678Z,20.20
2017-12-05T05:41:26.655Z,18.80
2017-12-05T05:42:26.642Z,18.20
2017-12-05T05:43:26.623Z,18.00
2017-12-05T05:44:26.604Z,18.60
2017-12-05T05:45:26.596Z,18.60
2017-12-05T05:46:26.568Z,18.90
2017-12-05T05:47:26.553Z,19.10
2017-12-05T05:48:26.542Z,19.00
2017-12-05T05:49:26.521Z,20.10
2017-12-05T05:50:26.504Z,18.70
2017-12-05T05:51:26.480Z,18.60
2017-12-05T05:52:26.462Z,20.30
2017-12-05T05:53:26.447Z,19.40
2017-12-05T05:54:26.428Z,19.40
2017-12-05T05:55:26.409Z,17.70
2017-12-05T05:56:26.401Z,17.60
2017-12-05T05:57:26.376Z,17.90
2017-12-05T05:58:26.360Z,18.40
2017-12-05T05:59:26.342Z,18.30
2017-12-05T06:00:26.323Z,19.20
2017-12-05T06:01:26.310Z,20.20
2017-12-05T06:02:26.292Z,18.70
2017-12-05T06:03:26.274Z,17.60
2017-12-05T06:04:26.252Z,17.70
2017-12-05T06:05:26.233Z,17.90
2017-12-05T06:06:26.220Z,21.00
2017-12-05T06:07:26.197Z,19.10
2017-12-05T06:08:26.185Z,19.10
2017-12-05T06:09:26.163Z,24.70
2017-12-05T06:10:26.144Z,18.60
2017-12-05T06:11:26.126Z,18.40
2017-12-05T06:12:26.111Z,18.30
2017-12-05T06:13:26.097Z,17.20
2017-12-05T06:14:26.072Z,18.60
2017-12-05T06:15:26.057Z,17.90
2017-12-05T06:16:26.043Z,16.60
2017-12-05T06:17:26.021Z,16.30
2017-12-05T06:18:26.007Z,16.50
2017-12-05T06:19:25.989Z,16.90
2017-12-05T06:20:25.968Z,17.10
2017-12-05T06:21:25.948Z,17.00
2017-12-05T06:22:25.938Z,16.80
2017-12-05T06:23:25.913Z,17.10
2017-12-05T06:24:25.896Z,16.80
2017-12-05T06:25:25.878Z,15.80
2017-12-05T06:26:25.859Z,15.40
2017-12-05T06:27:25.846Z,15.20
2017-12-05T06:28:25.827Z,16.10
2017-12-05T06:29:25.809Z,15.60
2017-12-05T06:30:25.798Z,16.10
2017-12-05T06:31:25.775Z,16.50
2017-12-05T06:32:25.762Z,15.90
2017-12-05T06:33:25.741Z,17.10
2017-12-05T06:34:25.725Z,16.90
2017-12-05T06:35:25.705Z,17.70
2017-12-05T06:36:25.685Z,16.80
2017-12-05T06:37:25.669Z,17.20
2017-12-05T06:38:25.655Z,15.80
2017-12-05T06:39:25.632Z,14.70
2017-12-05T06:40:25.615Z,14.80
2017-12-05T06:41:25.597Z,16.00
2017-12-05T06:42:25.585Z,16.00
2017-12-05T06:43:25.568Z,17.00
2017-12-05T06:44:25.547Z,16.30
2017-12-05T06:45:25.527Z,15.80
2017-12-05T06:46:25.511Z,16.10
2017-12-05T06:47:25.493Z,16.60
2017-12-05T06:48:25.477Z,16.10
2017-12-05T06:49:25.458Z,16.40
2017-12-05T06:50:25.441Z,15.80
2017-12-05T06:51:25.427Z,16.20
2017-12-05T06:52:25.412Z,16.90
2017-12-05T06:53:25.394Z,16.90
2017-12-05T06:54:25.371Z,15.70
2017-12-05T06:55:25.354Z,16.20
2017-12-05T06:56:25.338Z,15.80
2017-12-05T06:57:25.319Z,16.20
2017-12-05T06:58:25.309Z,15.90
2017-12-05T06:59:25.286Z,15.40
2017-12-05T07:00:25.270Z,14.90
2017-12-05T07:01:25.251Z,16.00
2017-12-05T07:02:25.235Z,16.40
2017-12-05T07:03:25.220Z,17.50
2017-12-05T07:04:25.198Z,16.40
2017-12-05T07:05:25.188Z,15.20
2017-12-05T07:06:25.166Z,15.80
2017-12-05T07:07:25.152Z,16.60
2017-12-05T07:08:25.128Z,17.50
2017-12-05T07:09:25.117Z,18.50
2017-12-05T07:10:25.099Z,18.20
2017-12-05T07:11:25.080Z,19.80
2017-12-05T07:12:25.062Z,18.80
2017-12-05T07:13:25.046Z,19.00
2017-12-05T07:14:25.034Z,19.10
2017-12-05T07:15:25.011Z,19.20
2017-12-05T07:16:24.996Z,17.90
2017-12-05T07:17:24.976Z,17.70
2017-12-05T07:18:24.958Z,18.20
2017-12-05T07:19:24.942Z,16.40
2017-12-05T07:20:24.929Z,18.20
2017-12-05T07:21:24.908Z,19.80
2017-12-05T07:22:24.894Z,18.60
2017-12-05T07:23:24.870Z,20.20
2017-12-05T07:24:24.860Z,20.70
2017-12-05T07:25:24.836Z,20.80
2017-12-05T07:26:24.820Z,19.70
2017-12-05T07:27:24.804Z,19.70
2017-12-05T07:28:24.788Z,19.10
2017-12-05T07:29:24.776Z,18.50
2017-12-05T07:30:24.757Z,19.70
2017-12-05T07:31:24.734Z,20.70
2017-12-05T07:32:24.718Z,21.70
2017-12-05T07:33:24.707Z,20.30
2017-12-05T07:34:24.685Z,19.60
2017-12-05T07:35:24.672Z,19.90
2017-12-05T07:36:24.651Z,19.70
2017-12-05T07:37:24.636Z,20.10
2017-12-05T07:38:24.615Z,18.60
2017-12-05T07:39:24.598Z,19.70
2017-12-05T07:40:24.583Z,20.10
2017-12-05T07:41:24.576Z,19.90
2017-12-05T07:42:24.550Z,19.70
2017-12-05T07:43:24.539Z,19.50
2017-12-05T07:44:24.515Z,19.00
2017-12-05T07:45:24.500Z,17.90
2017-12-05T07:46:24.480Z,18.10
2017-12-05T07:47:24.471Z,18.50
2017-12-05T07:48:24.448Z,19.60
2017-12-05T07:49:24.433Z,18.60
2017-12-05T07:50:24.413Z,18.40
2017-12-05T07:51:24.397Z,17.40
2017-12-05T07:52:24.382Z,18.80
2017-12-05T07:53:24.372Z,18.50
2017-12-05T07:54:24.354Z,18.00
2017-12-05T07:55:24.332Z,17.50
2017-12-05T07:56:24.314Z,17.40
2017-12-05T07:57:24.297Z,18.50
2017-12-05T07:58:24.281Z,18.30
2017-12-05T07:59:24.262Z,18.00
2017-12-05T08:00:24.245Z,19.50
2017-12-05T08:01:24.234Z,18.00
2017-12-05T08:02:24.213Z,18.40
2017-12-05T08:03:24.194Z,17.40
2017-12-05T08:04:24.178Z,17.90
2017-12-05T08:05:24.163Z,18.30
2017-12-05T08:06:24.149Z,19.90
2017-12-05T08:07:24.133Z,19.70
2017-12-05T08:08:24.122Z,19.00
2017-12-05T08:09:24.100Z,19.80
2017-12-05T08:10:24.075Z,18.80
2017-12-05T08:11:24.064Z,18.90
2017-12-05T08:12:24.043Z,20.10
2017-12-05T08:13:24.026Z,19.10
2017-12-05T08:14:24.009Z,20.00
2017-12-05T08:15:23.994Z,19.60
2017-12-05T08:16:23.976Z,19.50
2017-12-05T08:17:23.959Z,19.30
2017-12-05T08:18:23.942Z,19.70
2017-12-05T08:19:23.930Z,19.60
2017-12-05T08:20:23.915Z,20.30
2017-12-05T08:21:23.898Z,22.10
2017-12-05T08:22:23.877Z,21.60
2017-12-05T08:23:23.864Z,21.00
2017-12-05T08:24:23.843Z,21.00
2017-12-05T08:25:23.828Z,20.40
2017-12-05T08:26:23.808Z,20.10
2017-12-05T08:27:23.799Z,20.40
2017-12-05T08:28:23.778Z,20.90
2017-12-05T08:29:23.766Z,20.20
2017-12-05T08:30:23.746Z,21.70
2017-12-05T08:31:23.724Z,19.60
2017-12-05T08:32:23.709Z,22.10
2017-12-05T08:33:23.701Z,22.70
2017-12-05T08:34:23.680Z,22.50
2017-12-05T08:35:23.657Z,21.60
2017-12-05T08:36:23.639Z,24.60
2017-12-05T08:37:23.629Z,23.20
2017-12-05T08:38:23.615Z,22.80
2017-12-05T08:39:23.597Z,22.90
2017-12-05T08:40:23.578Z,24.20
2017-12-05T08:41:23.565Z,23.70
2017-12-05T08:42:23.544Z,23.30
2017-12-05T08:43:23.522Z,23.50
2017-12-05T08:44:23.507Z,23.00
2017-12-05T08:45:23.490Z,23.50
2017-12-05T08:46:23.471Z,24.50
2017-12-05T08:47:23.459Z,25.20
2017-12-05T08:48:23.440Z,24.00
2017-12-05T08:49:23.428Z,24.70
2017-12-05T08:50:23.406Z,25.60
2017-12-05T08:51:23.394Z,23.90
2017-12-05T08:52:23.381Z,24.60
2017-12-05T08:53:23.355Z,24.60
2017-12-05T08:54:23.345Z,24.60
2017-12-05T08:55:23.323Z,24.90
2017-12-05T08:56:23.307Z,25.10
2017-12-05T08:57:23.290Z,25.20
2017-12-05T08:58:23.272Z,24.00
2017-12-05T08:59:23.261Z,24.70
2017-12-05T09:00:23.238Z,24.70
2017-12-05T09:01:23.222Z,24.80
2017-12-05T09:02:23.211Z,23.90
2017-12-05T09:03:23.193Z,24.80
2017-12-05T09:04:23.174Z,24.50
2017-12-05T09:05:23.158Z,23.60
2017-12-05T09:06:23.139Z,24.00
2017-12-05T09:07:23.122Z,23.80
2017-12-05T09:08:23.116Z,23.50
2017-12-05T09:09:23.096Z,23.60
2017-12-05T09:10:23.071Z,25.00
2017-12-05T09:11:23.061Z,24.10
2017-12-05T09:12:23.041Z,23.80
2017-12-05T09:13:23.023Z,23.90
2017-12-05T09:14:23.006Z,24.30
2017-12-05T09:15:22.989Z,24.20
2017-12-05T09:16:22.979Z,22.40
2017-12-05T09:17:22.963Z,23.60
2017-12-05T09:18:22.940Z,22.70
2017-12-05T09:19:22.924Z,21.80
2017-12-05T09:20:22.912Z,23.50
2017-12-05T09:21:22.891Z,22.50
2017-12-05T09:22:22.876Z,24.00
2017-12-05T09:23:22.858Z,23.80
2017-12-05T09:24:22.839Z,24.20
2017-12-05T09:25:22.826Z,21.80
2017-12-05T09:26:22.811Z,22.40
2017-12-05T09:27:22.791Z,24.50
2017-12-05T09:28:22.774Z,22.10
2017-12-05T09:29:22.758Z,23.90
2017-12-05T09:30:22.741Z,24.20
2017-12-05T09:31:22.727Z,23.30
2017-12-05T09:32:22.710Z,22.90
2017-12-05T09:33:22.694Z,24.60
2017-12-05T09:34:22.676Z,21.10
2017-12-05T09:35:22.662Z,22.90
2017-12-05T09:36:22.644Z,24.50
2017-12-05T09:37:22.630Z,24.40
2017-12-05T09:38:22.613Z,22.70
2017-12-05T09:39:22.596Z,23.50
2017-12-05T09:40:22.582Z,23.50
2017-12-05T09:41:22.565Z,23.80
2017-12-05T09:42:22.588Z,22.30
2017-12-05T09:43:22.531Z,22.50
2017-12-05T09:44:22.521Z,22.70
2017-12-05T09:45:22.510Z,23.50
2017-12-05T09:46:22.481Z,22.20
2017-12-05T09:47:22.474Z,22.90
2017-12-05T09:48:22.456Z,24.90
2017-12-05T09:49:22.435Z,22.80
2017-12-05T09:50:22.424Z,23.00
2017-12-05T09:51:22.407Z,22.00
2017-12-05T09:52:22.428Z,21.50
2017-12-05T09:53:22.409Z,21.90
2017-12-05T09:54:22.359Z,21.20
2017-12-05T09:55:22.342Z,21.10
2017-12-05T09:56:22.330Z,21.00
2017-12-05T09:57:22.307Z,21.30
2017-12-05T09:58:22.294Z,20.50
2017-12-05T09:59:22.274Z,20.70
2017-12-05T10:00:22.262Z,21.50
2017-12-05T10:01:22.243Z,20.90
2017-12-05T10:02:22.283Z,21.10
2017-12-05T10:03:22.253Z,20.70
2017-12-05T10:04:22.252Z,22.20
2017-12-05T10:05:22.222Z,23.20
2017-12-05T10:06:22.208Z,23.30
2017-12-05T10:07:22.201Z,23.30
2017-12-05T10:08:22.182Z,21.70
2017-12-05T10:09:22.166Z,21.70
2017-12-05T10:10:22.096Z,24.90
2017-12-05T10:11:22.087Z,23.70
2017-12-05T10:12:22.064Z,26.00
2017-12-05T10:13:22.054Z,23.90
2017-12-05T10:14:22.078Z,23.70
2017-12-05T10:15:22.073Z,24.50
2017-12-05T10:16:22.051Z,24.00
2017-12-05T10:17:22.031Z,23.80
2017-12-05T10:18:21.967Z,24.60
2017-12-05T10:19:21.961Z,25.80
2017-12-05T10:20:21.941Z,25.60
2017-12-05T10:21:21.928Z,25.40
2017-12-05T10:22:21.923Z,25.30
2017-12-05T10:23:21.895Z,23.10
2017-12-05T10:24:21.881Z,24.00
2017-12-05T10:25:21.866Z,24.10
2017-12-05T10:26:21.889Z,23.60
2017-12-05T10:27:21.875Z,25.10
2017-12-05T10:28:21.859Z,24.20
2017-12-05T10:29:21.851Z,23.40
2017-12-05T10:30:21.839Z,24.10
2017-12-05T10:31:21.817Z,23.10
2017-12-05T10:32:21.794Z,23.10
2017-12-05T10:33:21.776Z,23.50
2017-12-05T10:34:21.722Z,23.40
2017-12-05T10:35:21.698Z,23.80
2017-12-05T10:36:21.682Z,23.80
2017-12-05T10:37:21.674Z,23.50
2017-12-05T10:38:21.651Z,24.40
2017-12-05T10:39:21.644Z,24.40
2017-12-05T10:40:21.628Z,24.60
2017-12-05T10:41:21.603Z,23.60
2017-12-05T10:42:21.643Z,22.20
2017-12-05T10:43:21.619Z,21.90
2017-12-05T10:44:21.601Z,21.50
2017-12-05T10:45:21.573Z,22.20
2017-12-05T10:46:21.528Z,23.90
2017-12-05T10:47:21.509Z,22.50
2017-12-05T10:48:21.499Z,21.90
2017-12-05T10:49:21.476Z,22.10
2017-12-05T10:50:21.505Z,23.00
2017-12-05T10:51:21.505Z,23.70
2017-12-05T10:52:21.477Z,21.40
2017-12-05T10:53:21.470Z,21.50
2017-12-05T10:54:21.445Z,22.00
2017-12-05T10:55:21.429Z,22.10
2017-12-05T10:56:21.465Z,21.50
2017-12-05T10:57:21.404Z,20.90
2017-12-05T10:58:21.355Z,21.80
2017-12-05T10:59:21.325Z,22.20
2017-12-05T11:00:21.318Z,22.10
2017-12-05T11:01:21.293Z,20.40
2017-12-05T11:02:21.271Z,21.30
2017-12-05T11:03:21.257Z,21.50
2017-12-05T11:04:21.242Z,21.60
2017-12-05T11:05:21.225Z,21.80
2017-12-05T11:06:21.250Z,20.50
2017-12-05T11:07:21.235Z,21.80
2017-12-05T11:08:21.226Z,22.80
2017-12-05T11:09:21.215Z,23.50
2017-12-05T11:10:21.206Z,21.80
2017-12-05T11:11:21.188Z,23.30
2017-12-05T11:12:21.177Z,23.40
2017-12-05T11:13:21.503Z,22.70
2017-12-05T11:14:21.085Z,22.30
2017-12-05T11:15:21.068Z,23.20
2017-12-05T11:16:21.052Z,22.80
2017-12-05T11:17:21.042Z,22.80
2017-12-05T11:18:21.064Z,21.90
2017-12-05T11:19:21.056Z,22.50
2017-12-05T11:20:21.048Z,23.40
2017-12-05T11:21:21.023Z,22.80
2017-12-05T11:22:20.959Z,22.30
2017-12-05T11:23:20.948Z,23.90
2017-12-05T11:24:20.931Z,23.80
2017-12-05T11:25:20.915Z,24.10
2017-12-05T11:26:20.897Z,24.60
2017-12-05T11:27:20.887Z,24.80
2017-12-05T11:28:20.865Z,25.80
2017-12-05T11:29:20.850Z,24.70
2017-12-05T11:30:20.890Z,25.70
2017-12-05T11:31:20.875Z,24.80
2017-12-05T11:32:20.848Z,26.40
2017-12-05T11:33:20.839Z,25.60
2017-12-05T11:34:20.834Z,24.70
2017-12-05T11:35:20.812Z,25.40
2017-12-05T11:36:20.803Z,27.70
2017-12-05T11:37:20.775Z,26.20
2017-12-05T11:38:20.721Z,26.50
2017-12-05T11:39:20.693Z,26.70
2017-12-05T11:40:20.680Z,26.30
2017-12-05T11:41:20.664Z,26.20
2017-12-05T11:42:20.650Z,25.70
2017-12-05T11:43:20.632Z,26.80
2017-12-05T11:44:20.616Z,26.90
2017-12-05T11:45:20.612Z,26.40
2017-12-05T11:46:20.626Z,25.10
2017-12-05T11:47:20.618Z,25.50
2017-12-05T11:48:20.606Z,25.50
2017-12-05T11:49:20.589Z,24.00
2017-12-05T11:50:20.528Z,24.70
2017-12-05T11:51:20.506Z,25.30
2017-12-05T11:52:20.503Z,25.50
2017-12-05T11:53:20.480Z,23.90
2017-12-05T11:54:20.507Z,25.70
2017-12-05T11:55:20.501Z,24.30
2017-12-05T11:56:20.486Z,23.40
2017-12-05T11:57:20.464Z,25.50
2017-12-05T11:58:20.452Z,23.90
2017-12-05T11:59:20.793Z,25.80
2017-12-05T12:00:20.413Z,25.30
2017-12-05T12:01:20.394Z,26.70
2017-12-05T12:02:20.360Z,30.20
2017-12-05T12:03:20.329Z,28.40
2017-12-05T12:04:20.316Z,27.20
2017-12-05T12:05:20.293Z,27.50
2017-12-05T12:06:20.277Z,26.20
2017-12-05T12:07:20.270Z,26.60
2017-12-05T12:08:20.276Z,24.50
2017-12-05T12:09:20.242Z,26.00
2017-12-05T12:10:20.266Z,26.40
2017-12-05T12:11:20.301Z,26.60
2017-12-05T12:12:20.234Z,26.00
2017-12-05T12:13:20.222Z,25.70
2017-12-05T12:14:20.215Z,25.40
2017-12-05T12:15:20.193Z,27.20
2017-12-05T12:16:20.172Z,25.90
2017-12-05T12:17:20.149Z,26.70
2017-12-05T12:18:20.119Z,26.50
2017-12-05T12:19:20.115Z,24.40
2017-12-05T12:20:20.094Z,24.40
2017-12-05T12:21:20.078Z,27.20
2017-12-05T12:22:20.091Z,26.70
2017-12-05T12:23:20.071Z,25.60
2017-12-05T12:24:20.052Z,25.00
2017-12-05T12:25:20.027Z,26.10
2017-12-05T12:26:19.999Z,26.40
2017-12-05T12:27:19.971Z,26.00
2017-12-05T12:28:19.963Z,25.80
2017-12-05T12:29:19.958Z,25.60
2017-12-05T12:30:19.925Z,26.90
2017-12-05T12:31:19.930Z,25.40
2017-12-05T12:32:19.916Z,24.80
2017-12-05T12:33:19.918Z,24.30
2017-12-05T12:34:19.904Z,24.80
2017-12-05T12:35:19.892Z,25.60
2017-12-05T12:36:19.864Z,25.10
2017-12-05T12:37:19.849Z,25.80
2017-12-05T12:38:19.834Z,24.80
2017-12-05T12:39:20.021Z,26.50
2017-12-05T12:40:19.810Z,25.90
2017-12-05T12:41:19.800Z,24.50
2017-12-05T12:42:19.766Z,26.70
2017-12-05T12:43:19.755Z,27.80
2017-12-05T12:44:19.737Z,27.50
2017-12-05T12:45:19.733Z,27.60
2017-12-05T12:46:19.715Z,26.80
2017-12-05T12:47:19.694Z,28.60
2017-12-05T12:48:19.666Z,27.00
2017-12-05T12:49:19.666Z,28.30
2017-12-05T12:50:19.651Z,27.10
2017-12-05T12:51:19.645Z,27.90
2017-12-05T12:52:19.630Z,28.90